Flight Track Log - Related Links

Times and Time Zones

All times are in EDT time to prevent confusion due to time zone crossing. See the DAL1903 flight status page for this flight to view local times or setup timezone preferences in your user account.

Time Position Orientation Groundspeed Altitude Reporting Facility
EDT Latitude Longitude Course Direction KTS MPH feet Rate Location/Type
Tue 11:04:05 AM 40.7667 -73.8500 237° Southwest 144 166 1,300  Level New York TRACON
Tue 11:05:05 AM 40.7333 -73.8167 143° Southeast 191 220 3,700 2,700 Climbing New York TRACON
Tue 11:06:05 AM 40.6833 -73.8667 217° Southwest 213 245 6,700 2,650 Climbing New York TRACON
Tue 11:07:05 AM 40.7000 -73.9500 285° West 256 295 9,000 1,150 Climbing New York TRACON
Tue 11:08:05 AM 40.7500 -74.0167 315° West 292 336 9,000 952 Level New York TRACON
Tue 11:09:00 AM 40.4930 -74.7141 237° Southwest  Level FlightAware Approximate
Tue 11:09:11 AM 40.8333 -74.0333 351° North 298 343 11,000  Level New York TRACON
Tue 11:10:11 AM 40.9000 -74.1167 317° Northwest 343 395 12,300 2,196 Climbing New York TRACON
Tue 11:12:25 AM 40.7856 -74.3861 241° Southwest 401 461 18,100 2,375 Climbing New York Center
Tue 11:13:23 AM 40.7111 -74.4969 228° Southwest 406 467 19,900 2,441 Climbing New York Center
Tue 11:14:23 AM 40.6367 -74.6106 229° Southwest 412 474 22,900 1,934 Climbing New York Center
Tue 11:15:24 AM 40.5600 -74.7264 229° Southwest 418 481 23,800 1,550 Climbing New York Center
Tue 11:16:23 AM 40.4831 -74.8422 229° Southwest 423 487 26,000 1,966 Climbing New York Center
Tue 11:17:23 AM 40.4039 -74.9600 229° Southwest 423 487 27,700 1,587 Climbing New York Center
Tue 11:18:24 AM 40.3267 -75.0753 229° Southwest 423 487 29,200 1,488 Climbing New York Center
Tue 11:19:24 AM 40.2472 -75.1953 229° Southwest 433 498 30,700 1,424 Climbing New York Center
Tue 11:20:22 AM 40.1700 -75.3100 229° Southwest 433 498 32,000 1,271 Climbing New York Center
Tue 11:21:22 AM 40.0947 -75.4244 229° Southwest 428 493 33,200 992 Climbing New York Center
Tue 11:22:23 AM 40.0175 -75.5331 227° Southwest 428 493 34,000 836 Climbing New York Center
Tue 11:23:24 AM 39.9483 -75.6394 230° Southwest 428 493 34,900 893 Climbing New York Center
Tue 11:24:24 AM 39.8728 -75.7506 228° Southwest 428 493 35,800 364 Climbing New York Center
Tue 11:26:09 AM 39.7464 -75.9506 231° Southwest 405 466 35,900 73 Climbing Washington Center
Tue 11:27:09 AM 39.6772 -76.0633 231° Southwest 405 466 36,000 50 Climbing Washington Center
Tue 11:28:09 AM 39.6081 -76.1761 232° Southwest 400 460 36,000  Level Washington Center
Tue 11:29:09 AM 39.5325 -76.2883 229° Southwest 400 460 36,000  Level Washington Center
Tue 11:30:09 AM 39.4608 -76.3981 230° Southwest 400 460 36,000  Level Washington Center
Tue 11:31:09 AM 39.3892 -76.5125 231° Southwest 406 467 36,000  Level Washington Center
Tue 11:32:09 AM 39.3175 -76.6244 230° Southwest 406 467 36,000  Level Washington Center
Tue 11:33:09 AM 39.2478 -76.7386 232° Southwest 411 473 36,000  Level Washington Center
Tue 11:34:09 AM 39.1717 -76.8472 228° Southwest 411 473 36,000  Level Washington Center
Tue 11:35:09 AM 39.0911 -76.9717 230° Southwest 411 473 36,000  Level Washington Center
Tue 11:36:09 AM 39.0083 -77.0769 225° Southwest 416 479 36,000  Level Washington Center
Tue 11:37:09 AM 38.9217 -77.1711 220° Southwest 416 479 36,000  Level Washington Center
Tue 11:38:09 AM 38.8372 -77.2681 222° Southwest 416 479 36,000  Level Washington Center
Tue 11:39:09 AM 38.7483 -77.3592 219° Southwest 416 479 36,000  Level Washington Center
Tue 11:40:09 AM 38.6633 -77.4581 222° Southwest 411 473 36,000  Level Washington Center
Tue 11:41:09 AM 38.5764 -77.5517 220° Southwest 411 473 36,000  Level Washington Center
Tue 11:42:09 AM 38.4914 -77.6447 221° Southwest 413 475 36,000  Level Washington Center
Tue 11:43:09 AM 38.4042 -77.7403 221° Southwest 407 468 36,000  Level Washington Center
Tue 11:44:09 AM 38.3169 -77.8331 220° Southwest 415 478 36,000  Level Washington Center
Tue 11:45:09 AM 38.2297 -77.9258 220° Southwest 415 478 36,000  Level Washington Center
Tue 11:46:09 AM 38.1383 -78.0153 218° Southwest 410 472 36,000  Level Washington Center
Tue 11:47:09 AM 38.0531 -78.1100 221° Southwest 415 478 36,000  Level Washington Center
Tue 11:48:09 AM 37.9653 -78.2072 221° Southwest 415 478 36,000  Level Washington Center
Tue 11:49:09 AM 37.8697 -78.2961 216° Southwest 416 479 36,000  Level Washington Center
Tue 11:50:09 AM 37.7781 -78.3819 217° Southwest 422 486 36,000  Level Washington Center
Tue 11:51:09 AM 37.6947 -78.4603 217° Southwest 422 486 36,000  Level Washington Center
Tue 11:52:09 AM 37.6008 -78.5458 216° Southwest 422 486 36,000  Level Washington Center
Tue 11:53:09 AM 37.5089 -78.6339 217° Southwest 422 486 36,000  Level Washington Center
Tue 11:54:09 AM 37.4150 -78.7217 217° Southwest 422 486 36,000  Level Washington Center
Tue 11:55:09 AM 37.3125 -78.8142 216° Southwest 422 486 36,000  Level Washington Center
Tue 11:56:09 AM 37.2183 -78.8989 216° Southwest 422 486 36,000  Level Washington Center
Tue 11:57:09 AM 37.1261 -78.9861 217° Southwest 422 486 36,000  Level Washington Center
Tue 11:58:09 AM 37.0361 -79.0733 218° Southwest 422 486 36,000  Level Washington Center
Tue 11:59:09 AM 36.9436 -79.1600 217° Southwest 422 486 36,000  Level Washington Center
Tue 12:00:09 PM 36.8514 -79.2439 216° Southwest 422 486 36,000  Level Washington Center
Tue 12:01:09 PM 36.7656 -79.3203 215° Southwest 422 486 36,000  Level Washington Center
Tue 12:02:09 PM 36.6733 -79.4064 217° Southwest 422 486 36,000  Level Washington Center
Tue 12:03:09 PM 36.5828 -79.4928 217° Southwest 422 486 36,000  Level Washington Center
Tue 12:05:05 PM 36.3992 -79.6539 215° Southwest 401 461 36,000  Level Atlanta Center
Tue 12:06:05 PM 36.3103 -79.7358 217° Southwest 401 461 36,000  Level Atlanta Center
Tue 12:07:05 PM 36.2172 -79.8156 215° Southwest 406 467 36,000  Level Atlanta Center
Tue 12:08:05 PM 36.1161 -79.9083 217° Southwest 421 484 36,000 -50 Level Atlanta Center
Tue 12:09:05 PM 36.0186 -79.9903 214° Southwest 421 484 35,900  Descending Atlanta Center
Tue 12:10:05 PM 35.9119 -80.0417 201° Southwest 416 479 36,000 50 Climbing Atlanta Center
Tue 12:11:05 PM 35.8031 -80.0956 202° Southwest 421 484 36,000  Level Atlanta Center
Tue 12:12:05 PM 35.7064 -80.1439 202° Southwest 421 484 36,000  Level Atlanta Center
Tue 12:13:05 PM 35.5997 -80.2000 203° Southwest 421 484 36,000  Level Atlanta Center
Tue 12:14:05 PM 35.4725 -80.2619 202° Southwest 433 498 36,000  Level Atlanta Center
Tue 12:15:05 PM 35.3697 -80.3153 203° Southwest 425 489 36,000  Level Atlanta Center
Tue 12:16:05 PM 35.2833 -80.3572 202° Southwest 425 489 36,000  Level Atlanta Center
Tue 12:18:55 PM 34.9428 -80.5247 202° Southwest 435 501 36,000  Level Jacksonville Center
Tue 12:19:55 PM 34.8292 -80.5811 202° Southwest 435 501 36,000  Level Jacksonville Center
Tue 12:20:55 PM 34.7361 -80.6289 203° Southwest 430 495 36,000  Level Jacksonville Center
Tue 12:21:55 PM 34.6244 -80.6850 202° Southwest 435 501 36,000  Level Jacksonville Center
Tue 12:22:55 PM 34.5086 -80.7408 202° Southwest 444 511 36,000  Level Jacksonville Center
Tue 12:23:55 PM 34.4031 -80.7939 203° Southwest 445 512 36,000  Level Jacksonville Center
Tue 12:24:55 PM 34.2789 -80.8569 203° Southwest 430 495 36,000  Level Jacksonville Center
Tue 12:25:55 PM 34.1650 -80.9075 200° South 430 495 36,000  Level Jacksonville Center
Tue 12:26:55 PM 34.0553 -80.9625 203° Southwest 435 501 36,000  Level Jacksonville Center
Tue 12:27:55 PM 33.9456 -81.0150 202° Southwest 435 501 36,000 100 Level Jacksonville Center
Tue 12:28:55 PM 33.8336 -81.0650 200° South 429 494 36,200  Climbing Jacksonville Center
Tue 12:29:55 PM 33.7217 -81.1222 203° Southwest 435 501 36,000 -100 Descending Jacksonville Center
Tue 12:30:55 PM 33.6097 -81.1792 203° Southwest 435 501 36,000  Level Jacksonville Center
Tue 12:31:55 PM 33.5000 -81.2336 202° Southwest 435 501 36,000  Level Jacksonville Center
Tue 12:32:55 PM 33.3922 -81.2881 203° Southwest 435 501 36,000  Level Jacksonville Center
Tue 12:33:55 PM 33.2800 -81.3397 201° Southwest 435 501 36,000  Level Jacksonville Center
Tue 12:34:55 PM 33.1722 -81.3936 203° Southwest 435 501 36,000  Level Jacksonville Center
Tue 12:35:55 PM 33.0600 -81.4500 203° Southwest 435 501 36,000  Level Jacksonville Center
Tue 12:36:55 PM 32.9522 -81.5014 202° Southwest 435 501 36,000  Level Jacksonville Center
Tue 12:37:55 PM 32.8400 -81.5550 202° Southwest 435 501 36,000  Level Jacksonville Center
Tue 12:38:55 PM 32.7300 -81.6058 201° Southwest 435 501 36,000  Level Jacksonville Center
Tue 12:39:55 PM 32.6219 -81.6617 204° Southwest 430 495 36,000  Level Jacksonville Center
Tue 12:40:55 PM 32.5222 -81.7100 202° Southwest 430 495 36,000  Level Jacksonville Center
Tue 12:41:55 PM 32.4017 -81.7656 201° Southwest 430 495 36,000  Level Jacksonville Center
Tue 12:42:55 PM 32.2914 -81.8186 202° Southwest 430 495 36,000  Level Jacksonville Center
Tue 12:43:55 PM 32.1917 -81.8664 202° Southwest 430 495 36,000  Level Jacksonville Center
Tue 12:44:55 PM 32.0689 -81.9242 202° Southwest 430 495 36,000  Level Jacksonville Center
Tue 12:45:55 PM 31.9669 -81.9717 202° Southwest 430 495 36,000  Level Jacksonville Center
Tue 12:46:55 PM 31.8419 -82.0219 199° South 436 502 36,000  Level Jacksonville Center
Tue 12:47:55 PM 31.7253 -82.0622 196° South 436 502 36,000  Level Jacksonville Center
Tue 12:48:55 PM 31.6147 -82.0778 187° South 444 511 36,000  Level Jacksonville Center
Tue 12:49:55 PM 31.4939 -82.0886 184° South 444 511 36,000  Level Jacksonville Center
Tue 12:50:55 PM 31.3706 -82.1017 185° South 444 511 36,000  Level Jacksonville Center
Tue 12:51:55 PM 31.2497 -82.1125 184° South 444 511 36,000  Level Jacksonville Center
Tue 12:52:55 PM 31.1264 -82.1256 185° South 444 511 36,000  Level Jacksonville Center
Tue 12:53:55 PM 31.0033 -82.1364 184° South 444 511 36,000  Level Jacksonville Center
Tue 12:54:55 PM 30.8803 -82.1494 185° South 444 511 36,000  Level Jacksonville Center
Tue 12:55:55 PM 30.7572 -82.1650 186° South 444 511 36,000  Level Jacksonville Center
Tue 12:56:55 PM 30.6342 -82.1781 185° South 444 511 36,000  Level Jacksonville Center
Tue 12:57:55 PM 30.5131 -82.1861 183° South 444 511 36,000  Level Jacksonville Center
Tue 12:58:55 PM 30.3919 -82.1992 185° South 444 511 36,000  Level Jacksonville Center
Tue 12:59:55 PM 30.2583 -82.2144 186° South 444 511 36,000  Level Jacksonville Center
Tue 01:00:55 PM 30.1375 -82.2272 185° South 444 511 36,000 -100 Level Jacksonville Center
Tue 01:01:55 PM 30.0225 -82.2306 181° South 444 511 35,800 -950 Descending Jacksonville Center
Tue 01:02:55 PM 29.8972 -82.2194 176° South 444 511 34,100 -2,500 Descending Jacksonville Center
Tue 01:03:55 PM 29.7594 -82.2083 176° South 449 517 30,800 -3,050 Descending Jacksonville Center
Tue 01:04:55 PM 29.6361 -82.1947 175° South 449 517 28,000 -2,100 Descending Jacksonville Center
Tue 01:05:55 PM 29.5067 -82.1861 177° South 454 522 26,600 -1,750 Descending Jacksonville Center
Tue 01:06:55 PM 29.3814 -82.1753 176° South 460 529 24,500 -2,050 Descending Jacksonville Center
Tue 01:07:55 PM 29.2539 -82.1667 177° South 460 529 22,500 -1,950 Descending Jacksonville Center
Tue 01:08:55 PM 29.1350 -82.1556 175° South 460 529 20,600 -1,950 Descending Jacksonville Center
Tue 01:09:55 PM 29.0181 -82.1469 176° South 440 506 18,600 -1,750 Descending Jacksonville Center
Tue 01:10:55 PM 28.9158 -82.1406 177° South 428 493 17,100 -1,767 Descending Jacksonville Center
Tue 01:12:55 PM 28.6833 -82.1167 175° South 392 451 13,300 -1,440 Descending Tampa TRACON
Tue 01:13:50 PM 28.6000 -82.1167 180° South 377 434 12,900 -645 Descending Tampa TRACON
Tue 01:14:56 PM 28.4833 -82.0833 166° South 366 421 12,000 -810 Descending Tampa TRACON
Tue 01:15:56 PM 28.3833 -82.0833 180° South 361 415 11,200 -500 Descending Tampa TRACON
Tue 01:16:56 PM 28.2833 -82.0667 172° South 355 409 11,000 -100 Descending Tampa TRACON
Tue 01:17:56 PM 28.1833 -82.0500 172° South 354 407 11,000  Level Tampa TRACON
Tue 01:18:57 PM 28.0833 -82.0333 172° South 353 406 11,000 -381 Level Tampa TRACON
Tue 01:20:02 PM 27.9833 -82.0167 172° South 298 343 10,200 -1,200 Descending Tampa TRACON
Tue 01:21:02 PM 27.9167 -82.0833 221° Southwest 285 328 8,500 -1,722 Descending Tampa TRACON
Tue 01:21:57 PM 27.8833 -82.1333 233° Southwest 284 327 6,900 -1,252 Descending Tampa TRACON
Tue 01:22:57 PM 27.8167 -82.2000 221° Southwest 280 322 6,100 -400 Descending Tampa TRACON
Tue 01:23:57 PM 27.7500 -82.2500 214° Southwest 277 319 6,100 -50 Level Tampa TRACON
Tue 01:24:57 PM 27.7000 -82.3000 222° Southwest 279 321 6,000 -550 Descending Tampa TRACON
Tue 01:25:57 PM 27.6500 -82.3833 236° Southwest 276 318 5,000 -900 Descending Tampa TRACON
Tue 01:26:57 PM 27.6167 -82.4333 233° Southwest 248 285 4,200 -1,050 Descending Tampa TRACON
Tue 01:27:57 PM 27.5667 -82.5000 230° Southwest 237 273 2,900 -1,105 Descending Tampa TRACON
Tue 01:28:51 PM 27.5333 -82.5500 233° Southwest 234 269 2,100 -889 Descending Tampa TRACON

Login

Don't have an account? Register now (free) for customized features, flight alerts, and more!